sensor_id;sensor_type;location;lat;lon;timestamp;pressure;altitude;pressure_sealevel;temperature;humidity
82388;BME280;72027;47.420;9.310;2023-08-21T00:02:11;93960.72;;;18.86;74.31
82388;BME280;72027;47.420;9.310;2023-08-21T00:04:38;93963.75;;;18.82;73.92
82388;BME280;72027;47.420;9.310;2023-08-21T00:07:04;93959.94;;;18.80;74.26
82388;BME280;72027;47.420;9.310;2023-08-21T00:09:32;93963.25;;;18.78;74.73
82388;BME280;72027;47.420;9.310;2023-08-21T00:11:59;93964.75;;;18.74;74.76
82388;BME280;72027;47.420;9.310;2023-08-21T00:14:25;93963.97;;;18.67;75.45
82388;BME280;72027;47.420;9.310;2023-08-21T00:16:52;93957.06;;;18.63;75.15
82388;BME280;72027;47.420;9.310;2023-08-21T00:19:19;93961.63;;;18.60;75.12
82388;BME280;72027;47.420;9.310;2023-08-21T00:21:45;93956.53;;;18.59;75.56
82388;BME280;72027;47.420;9.310;2023-08-21T00:24:12;93957.53;;;18.56;75.17
82388;BME280;72027;47.420;9.310;2023-08-21T00:26:38;93961.88;;;18.51;75.13
82388;BME280;72027;47.420;9.310;2023-08-21T00:29:05;93956.50;;;18.47;75.17
82388;BME280;72027;47.420;9.310;2023-08-21T00:31:31;93966.19;;;18.46;75.26
82388;BME280;72027;47.420;9.310;2023-08-21T00:33:58;93964.63;;;18.45;75.44
82388;BME280;72027;47.420;9.310;2023-08-21T00:36:24;93957.50;;;18.44;75.50
82388;BME280;72027;47.420;9.310;2023-08-21T00:38:51;93963.59;;;18.43;75.32
82388;BME280;72027;47.420;9.310;2023-08-21T00:41:17;93967.69;;;18.42;75.12
82388;BME280;72027;47.420;9.310;2023-08-21T00:43:45;93964.38;;;18.38;75.89
82388;BME280;72027;47.420;9.310;2023-08-21T00:46:11;93964.13;;;18.36;75.66
82388;BME280;72027;47.420;9.310;2023-08-21T00:48:38;93957.19;;;18.31;76.15
82388;BME280;72027;47.420;9.310;2023-08-21T00:51:04;93957.19;;;18.25;76.33
82388;BME280;72027;47.420;9.310;2023-08-21T00:53:33;93954.09;;;18.18;76.92
82388;BME280;72027;47.420;9.310;2023-08-21T00:56:00;93949.22;;;18.13;76.86
82388;BME280;72027;47.420;9.310;2023-08-21T00:58:27;93952.25;;;18.09;77.65
82388;BME280;72027;47.420;9.310;2023-08-21T01:00:54;93949.19;;;18.07;77.14
82388;BME280;72027;47.420;9.310;2023-08-21T01:03:21;93947.41;;;18.04;76.93
82388;BME280;72027;47.420;9.310;2023-08-21T01:05:48;93953.22;;;18.00;76.80
82388;BME280;72027;47.420;9.310;2023-08-21T01:08:30;93954.25;;;18.03;76.71
82388;BME280;72027;47.420;9.310;2023-08-21T01:13:37;93958.88;;;18.06;76.77
82388;BME280;72027;47.420;9.310;2023-08-21T01:16:08;93957.59;;;18.07;76.61
82388;BME280;72027;47.420;9.310;2023-08-21T01:18:37;93956.06;;;18.06;76.30
82388;BME280;72027;47.420;9.310;2023-08-21T01:21:05;93960.13;;;18.05;76.72
82388;BME280;72027;47.420;9.310;2023-08-21T01:23:37;93964.44;;;18.00;76.27
82388;BME280;72027;47.420;9.310;2023-08-21T01:26:05;93964.19;;;17.98;76.42
82388;BME280;72027;47.420;9.310;2023-08-21T01:28:32;93955.78;;;17.98;76.00
82388;BME280;72027;47.420;9.310;2023-08-21T01:31:09;93966.22;;;17.98;76.08
82388;BME280;72027;47.420;9.310;2023-08-21T01:33:44;93961.13;;;17.96;76.31
82388;BME280;72027;47.420;9.310;2023-08-21T01:36:12;93964.16;;;17.93;76.52
82388;BME280;72027;47.420;9.310;2023-08-21T01:38:40;93960.53;;;17.87;76.55
82388;BME280;72027;47.420;9.310;2023-08-21T01:41:07;93965.34;;;17.80;76.96
82388;BME280;72027;47.420;9.310;2023-08-21T01:43:33;93959.16;;;17.76;77.11
82388;BME280;72027;47.420;9.310;2023-08-21T01:46:01;93958.91;;;17.74;76.62
82388;BME280;72027;47.420;9.310;2023-08-21T01:48:28;93958.66;;;17.72;76.63
82388;BME280;72027;47.420;9.310;2023-08-21T01:50:55;93960.66;;;17.66;76.16
82388;BME280;72027;47.420;9.310;2023-08-21T01:53:21;93967.50;;;17.65;76.15
82388;BME280;72027;47.420;9.310;2023-08-21T01:55:48;93964.22;;;17.67;76.39
82388;BME280;72027;47.420;9.310;2023-08-21T01:58:15;93964.22;;;17.67;76.41
82388;BME280;72027;47.420;9.310;2023-08-21T02:00:42;93964.69;;;17.65;76.34
82388;BME280;72027;47.420;9.310;2023-08-21T02:03:11;93964.19;;;17.61;75.95
82388;BME280;72027;47.420;9.310;2023-08-21T02:05:39;93962.09;;;17.56;76.55
82388;BME280;72027;47.420;9.310;2023-08-21T02:08:08;93969.47;;;17.53;76.61
82388;BME280;72027;47.420;9.310;2023-08-21T02:10:35;93966.41;;;17.51;77.66
82388;BME280;72027;47.420;9.310;2023-08-21T02:13:02;93973.00;;;17.48;77.34
82388;BME280;72027;47.420;9.310;2023-08-21T02:15:28;93967.13;;;17.46;76.82
82388;BME280;72027;47.420;9.310;2023-08-21T02:17:55;93967.13;;;17.46;77.80
82388;BME280;72027;47.420;9.310;2023-08-21T02:20:22;93964.31;;;17.46;77.26
82388;BME280;72027;47.420;9.310;2023-08-21T02:22:48;93967.63;;;17.45;76.88
82388;BME280;72027;47.420;9.310;2023-08-21T02:25:15;93967.13;;;17.46;76.64
82388;BME280;72027;47.420;9.310;2023-08-21T02:27:41;93975.03;;;17.48;77.00
82388;BME280;72027;47.420;9.310;2023-08-21T02:30:08;93975.03;;;17.48;76.77
82388;BME280;72027;47.420;9.310;2023-08-21T02:32:35;93970.19;;;17.48;76.68
82388;BME280;72027;47.420;9.310;2023-08-21T02:35:02;93979.34;;;17.49;76.80
82388;BME280;72027;47.420;9.310;2023-08-21T02:37:28;93978.59;;;17.48;77.54
82388;BME280;72027;47.420;9.310;2023-08-21T02:39:55;93981.41;;;17.48;76.80
82388;BME280;72027;47.420;9.310;2023-08-21T02:42:21;93974.25;;;17.47;76.86
82388;BME280;72027;47.420;9.310;2023-08-21T02:44:48;93977.56;;;17.46;76.60
82388;BME280;72027;47.420;9.310;2023-08-21T02:47:14;93982.88;;;17.44;76.98
82388;BME280;72027;47.420;9.310;2023-08-21T02:49:41;93977.00;;;17.42;76.89
82388;BME280;72027;47.420;9.310;2023-08-21T02:52:08;93975.47;;;17.41;76.64
82388;BME280;72027;47.420;9.310;2023-08-21T02:54:34;93983.59;;;17.38;77.16
82388;BME280;72027;47.420;9.310;2023-08-21T02:57:01;93982.28;;;17.34;77.13
82388;BME280;72027;47.420;9.310;2023-08-21T02:59:27;93977.69;;;17.31;77.93
82388;BME280;72027;47.420;9.310;2023-08-21T03:01:54;93979.44;;;17.28;77.74
82388;BME280;72027;47.420;9.310;2023-08-21T03:04:21;93982.00;;;17.26;77.51
82388;BME280;72027;47.420;9.310;2023-08-21T03:06:47;93981.44;;;17.22;77.27
82388;BME280;72027;47.420;9.310;2023-08-21T03:09:15;93978.88;;;17.19;78.23
82388;BME280;72027;47.420;9.310;2023-08-21T03:11:41;93978.59;;;17.16;77.66
82388;BME280;72027;47.420;9.310;2023-08-21T03:14:08;93980.34;;;17.14;77.88
82388;BME280;72027;47.420;9.310;2023-08-21T03:16:34;93977.28;;;17.12;77.66
82388;BME280;72027;47.420;9.310;2023-08-21T03:19:01;93974.97;;;17.10;78.07
82388;BME280;72027;47.420;9.310;2023-08-21T03:21:29;93972.66;;;17.09;77.60
82388;BME280;72027;47.420;9.310;2023-08-21T03:23:58;93975.19;;;17.07;77.75
82388;BME280;72027;47.420;9.310;2023-08-21T03:26:30;93969.81;;;17.03;77.94
82388;BME280;72027;47.420;9.310;2023-08-21T03:28:57;93974.66;;;17.03;78.38
82388;BME280;72027;47.420;9.310;2023-08-21T03:31:24;93980.25;;;17.03;77.99
82388;BME280;72027;47.420;9.310;2023-08-21T03:33:50;93979.22;;;17.00;78.58
82388;BME280;72027;47.420;9.310;2023-08-21T03:36:20;93983.25;;;16.99;78.80
82388;BME280;72027;47.420;9.310;2023-08-21T03:38:47;93987.81;;;16.97;79.05
82388;BME280;72027;47.420;9.310;2023-08-21T03:41:13;93975.09;;;16.95;78.15
82388;BME280;72027;47.420;9.310;2023-08-21T03:43:40;93983.47;;;16.95;78.54
82388;BME280;72027;47.420;9.310;2023-08-21T03:46:07;93981.97;;;16.94;78.13
82388;BME280;72027;47.420;9.310;2023-08-21T03:48:33;93981.16;;;16.94;78.44
82388;BME280;72027;47.420;9.310;2023-08-21T03:51:00;93988.53;;;16.91;79.11
82388;BME280;72027;47.420;9.310;2023-08-21T03:53:27;93986.47;;;16.86;78.40
82388;BME280;72027;47.420;9.310;2023-08-21T03:55:54;93989.44;;;16.83;78.73
82388;BME280;72027;47.420;9.310;2023-08-21T03:58:20;93989.69;;;16.79;78.67
82388;BME280;72027;47.420;9.310;2023-08-21T04:00:47;93994.19;;;16.77;79.49
82388;BME280;72027;47.420;9.310;2023-08-21T04:03:13;93994.69;;;16.75;79.06
82388;BME280;72027;47.420;9.310;2023-08-21T04:05:40;93994.69;;;16.75;78.93
82388;BME280;72027;47.420;9.310;2023-08-21T04:08:06;93997.78;;;16.77;79.59
82388;BME280;72027;47.420;9.310;2023-08-21T04:10:33;93999.59;;;16.80;79.07
82388;BME280;72027;47.420;9.310;2023-08-21T04:12:59;94008.00;;;16.80;78.86
82388;BME280;72027;47.420;9.310;2023-08-21T04:15:28;94007.75;;;16.78;79.44
82388;BME280;72027;47.420;9.310;2023-08-21T04:17:55;94009.25;;;16.79;79.28
82388;BME280;72027;47.420;9.310;2023-08-21T04:20:22;94010.78;;;16.80;79.09
82388;BME280;72027;47.420;9.310;2023-08-21T04:22:49;94000.66;;;16.83;79.37
82388;BME280;72027;47.420;9.310;2023-08-21T04:25:16;94008.13;;;16.91;79.98
82388;BME280;72027;47.420;9.310;2023-08-21T04:27:42;94012.19;;;17.16;80.80
82388;BME280;72027;47.420;9.310;2023-08-21T04:30:10;94009.03;;;17.35;78.93
82388;BME280;72027;47.420;9.310;2023-08-21T04:32:37;94018.03;;;17.45;77.96
82388;BME280;72027;47.420;9.310;2023-08-21T04:35:04;94019.84;;;17.48;77.06
82388;BME280;72027;47.420;9.310;2023-08-21T04:37:31;94016.78;;;17.46;77.23
82388;BME280;72027;47.420;9.310;2023-08-21T04:39:58;94017.06;;;17.48;77.75
82388;BME280;72027;47.420;9.310;2023-08-21T04:42:25;94016.78;;;17.46;77.34
82388;BME280;72027;47.420;9.310;2023-08-21T04:44:52;94019.06;;;17.47;77.80
82388;BME280;72027;47.420;9.310;2023-08-21T04:47:23;94016.38;;;17.58;77.28
82388;BME280;72027;47.420;9.310;2023-08-21T04:49:54;94017.22;;;17.70;77.21
82388;BME280;72027;47.420;9.310;2023-08-21T04:52:22;94014.69;;;17.72;76.79
82388;BME280;72027;47.420;9.310;2023-08-21T04:54:49;94019.13;;;17.85;76.81
82388;BME280;72027;47.420;9.310;2023-08-21T04:57:16;94015.34;;;17.88;77.04
82388;BME280;72027;47.420;9.310;2023-08-21T04:59:44;94018.13;;;17.88;76.88
82388;BME280;72027;47.420;9.310;2023-08-21T05:02:10;94020.44;;;17.89;76.50
82388;BME280;72027;47.420;9.310;2023-08-21T05:04:38;94026.03;;;17.89;76.47
82388;BME280;72027;47.420;9.310;2023-08-21T05:07:05;94026.78;;;17.90;76.68
82388;BME280;72027;47.420;9.310;2023-08-21T05:09:32;94029.88;;;17.92;76.46
82388;BME280;72027;47.420;9.310;2023-08-21T05:11:59;94027.34;;;17.94;76.64
82388;BME280;72027;47.420;9.310;2023-08-21T05:14:26;94029.91;;;17.97;76.52
82388;BME280;72027;47.420;9.310;2023-08-21T05:16:53;94032.75;;;18.03;76.72
82388;BME280;72027;47.420;9.310;2023-08-21T05:19:20;94025.13;;;18.03;76.95
82388;BME280;72027;47.420;9.310;2023-08-21T05:21:47;94036.09;;;18.07;78.13
82388;BME280;72027;47.420;9.310;2023-08-21T05:24:13;94032.81;;;18.09;77.98
82388;BME280;72027;47.420;9.310;2023-08-21T05:26:46;94035.09;;;18.10;77.87
82388;BME280;72027;47.420;9.310;2023-08-21T05:29:12;94033.31;;;18.13;77.20
82388;BME280;72027;47.420;9.310;2023-08-21T05:31:39;94028.75;;;18.15;76.45
82388;BME280;72027;47.420;9.310;2023-08-21T05:34:06;94037.94;;;18.21;77.36
82388;BME280;72027;47.420;9.310;2023-08-21T05:36:33;94032.91;;;18.25;77.02
82388;BME280;72027;47.420;9.310;2023-08-21T05:39:02;94029.34;;;18.31;76.79
82388;BME280;72027;47.420;9.310;2023-08-21T05:41:29;94037.78;;;18.36;77.35
82388;BME280;72027;47.420;9.310;2023-08-21T05:43:57;94031.72;;;18.43;76.58
82388;BME280;72027;47.420;9.310;2023-08-21T05:46:25;94037.63;;;18.51;77.43
82388;BME280;72027;47.420;9.310;2023-08-21T05:48:52;94039.66;;;18.56;76.16
82388;BME280;72027;47.420;9.310;2023-08-21T05:51:21;94043.00;;;18.60;75.36
82388;BME280;72027;47.420;9.310;2023-08-21T05:53:50;94046.88;;;18.68;75.78
82388;BME280;72027;47.420;9.310;2023-08-21T05:56:25;94049.44;;;18.72;75.09
82388;BME280;72027;47.420;9.310;2023-08-21T05:58:54;94040.28;;;18.77;75.10
82388;BME280;72027;47.420;9.310;2023-08-21T06:01:23;94040.56;;;18.85;75.38
82388;BME280;72027;47.420;9.310;2023-08-21T06:03:50;94048.25;;;18.90;75.24
82388;BME280;72027;47.420;9.310;2023-08-21T06:06:31;94049.81;;;18.97;75.06
82388;BME280;72027;47.420;9.310;2023-08-21T06:08:57;94054.16;;;19.03;75.18
82388;BME280;72027;47.420;9.310;2023-08-21T06:11:24;94047.53;;;19.12;75.18
82388;BME280;72027;47.420;9.310;2023-08-21T06:13:50;94043.75;;;19.21;74.61
82388;BME280;72027;47.420;9.310;2023-08-21T06:16:17;94054.50;;;19.33;74.14
82388;BME280;72027;47.420;9.310;2023-08-21T06:18:45;94056.31;;;19.48;73.57
82388;BME280;72027;47.420;9.310;2023-08-21T06:21:11;94053.50;;;19.59;73.12
82388;BME280;72027;47.420;9.310;2023-08-21T06:23:38;94057.13;;;19.71;73.34
82388;BME280;72027;47.420;9.310;2023-08-21T06:26:05;94062.00;;;19.82;72.80
82388;BME280;72027;47.420;9.310;2023-08-21T06:28:31;94051.75;;;19.90;72.75
82388;BME280;72027;47.420;9.310;2023-08-21T06:30:58;94052.50;;;19.96;72.45
82388;BME280;72027;47.420;9.310;2023-08-21T06:33:25;94053.53;;;20.04;72.10
82388;BME280;72027;47.420;9.310;2023-08-21T06:35:53;94064.53;;;20.13;72.22
82388;BME280;72027;47.420;9.310;2023-08-21T06:38:20;94053.50;;;20.21;72.65
82388;BME280;72027;47.420;9.310;2023-08-21T06:40:47;94059.13;;;20.32;72.32
82388;BME280;72027;47.420;9.310;2023-08-21T06:43:13;94063.97;;;20.43;72.18
82388;BME280;72027;47.420;9.310;2023-08-21T06:45:45;94063.69;;;20.58;72.08
82388;BME280;72027;47.420;9.310;2023-08-21T06:48:12;94058.25;;;20.77;71.30
82388;BME280;72027;47.420;9.310;2023-08-21T06:50:39;94060.00;;;20.91;70.80
82388;BME280;72027;47.420;9.310;2023-08-21T06:53:05;94061.47;;;21.09;69.93
82388;BME280;72027;47.420;9.310;2023-08-21T06:55:32;94061.88;;;21.24;70.09
82388;BME280;72027;47.420;9.310;2023-08-21T06:57:58;94072.84;;;21.39;69.83
82388;BME280;72027;47.420;9.310;2023-08-21T07:00:25;94070.47;;;21.49;69.38
82388;BME280;72027;47.420;9.310;2023-08-21T07:02:51;94081.19;;;21.56;69.20
82388;BME280;72027;47.420;9.310;2023-08-21T07:05:18;94075.50;;;21.62;68.83
82388;BME280;72027;47.420;9.310;2023-08-21T07:07:44;94076.72;;;21.72;69.25
82388;BME280;72027;47.420;9.310;2023-08-21T07:10:11;94085.63;;;21.82;68.36
82388;BME280;72027;47.420;9.310;2023-08-21T07:12:38;94081.97;;;21.92;67.88
82388;BME280;72027;47.420;9.310;2023-08-21T07:15:05;94084.94;;;22.06;67.13
82388;BME280;72027;47.420;9.310;2023-08-21T07:17:32;94089.16;;;22.18;66.64
82388;BME280;72027;47.420;9.310;2023-08-21T07:19:58;94088.81;;;22.33;66.61
82388;BME280;72027;47.420;9.310;2023-08-21T07:22:25;94090.78;;;22.43;66.26
82388;BME280;72027;47.420;9.310;2023-08-21T07:24:52;94095.03;;;22.56;64.39
82388;BME280;72027;47.420;9.310;2023-08-21T07:27:19;94088.75;;;22.69;64.05
82388;BME280;72027;47.420;9.310;2023-08-21T07:29:46;94096.09;;;22.77;63.65
82388;BME280;72027;47.420;9.310;2023-08-21T07:32:13;94096.47;;;22.87;63.76
82388;BME280;72027;47.420;9.310;2023-08-21T07:34:40;94088.13;;;23.00;63.87
82388;BME280;72027;47.420;9.310;2023-08-21T07:37:08;94093.38;;;23.15;64.23
82388;BME280;72027;47.420;9.310;2023-08-21T07:41:12;94090.94;;;23.44;62.63
82388;BME280;72027;47.420;9.310;2023-08-21T07:43:41;94097.75;;;23.54;61.59
82388;BME280;72027;47.420;9.310;2023-08-21T07:46:10;94097.81;;;23.67;62.28
82388;BME280;72027;47.420;9.310;2023-08-21T07:48:42;94090.84;;;23.87;62.94
82388;BME280;72027;47.420;9.310;2023-08-21T07:51:10;94093.97;;;24.35;61.08
82388;BME280;72027;47.420;9.310;2023-08-21T07:53:38;94102.69;;;24.96;59.26
82388;BME280;72027;47.420;9.310;2023-08-21T07:56:06;94104.41;;;25.52;57.66
82388;BME280;72027;47.420;9.310;2023-08-21T07:58:36;94108.56;;;25.99;55.75
82388;BME280;72027;47.420;9.310;2023-08-21T08:01:04;94106.31;;;26.39;55.32
82388;BME280;72027;47.420;9.310;2023-08-21T08:03:32;94108.44;;;26.67;54.22
82388;BME280;72027;47.420;9.310;2023-08-21T08:06:00;94117.16;;;26.90;54.45
82388;BME280;72027;47.420;9.310;2023-08-21T08:08:28;94110.59;;;27.24;54.36
82388;BME280;72027;47.420;9.310;2023-08-21T08:11:01;94113.78;;;27.57;52.23
82388;BME280;72027;47.420;9.310;2023-08-21T08:13:29;94108.41;;;27.82;51.36
82388;BME280;72027;47.420;9.310;2023-08-21T08:15:58;94112.88;;;28.06;51.06
82388;BME280;72027;47.420;9.310;2023-08-21T08:18:27;94113.84;;;28.24;50.35
82388;BME280;72027;47.420;9.310;2023-08-21T08:20:55;94111.22;;;28.41;50.26
82388;BME280;72027;47.420;9.310;2023-08-21T08:23:23;94105.19;;;28.60;50.42
82388;BME280;72027;47.420;9.310;2023-08-21T08:25:52;94107.84;;;28.81;50.05
82388;BME280;72027;47.420;9.310;2023-08-21T08:28:20;94111.06;;;29.01;49.01
82388;BME280;72027;47.420;9.310;2023-08-21T08:30:48;94111.25;;;29.26;48.96
82388;BME280;72027;47.420;9.310;2023-08-21T08:33:17;94107.03;;;29.42;48.98
82388;BME280;72027;47.420;9.310;2023-08-21T08:35:45;94110.81;;;29.45;47.75
82388;BME280;72027;47.420;9.310;2023-08-21T08:38:13;94109.84;;;29.50;47.72
82388;BME280;72027;47.420;9.310;2023-08-21T08:40:44;94108.09;;;29.62;49.27
82388;BME280;72027;47.420;9.310;2023-08-21T08:43:13;94105.78;;;29.76;48.18
82388;BME280;72027;47.420;9.310;2023-08-21T08:45:41;94099.06;;;29.89;46.79
82388;BME280;72027;47.420;9.310;2023-08-21T08:48:10;94106.22;;;30.05;47.01
82388;BME280;72027;47.420;9.310;2023-08-21T08:50:39;94106.53;;;30.17;45.73
82388;BME280;72027;47.420;9.310;2023-08-21T08:53:09;94108.00;;;30.33;46.57
82388;BME280;72027;47.420;9.310;2023-08-21T08:55:42;94107.44;;;30.60;47.19
82388;BME280;72027;47.420;9.310;2023-08-21T08:58:10;94110.56;;;30.71;45.43
82388;BME280;72027;47.420;9.310;2023-08-21T09:00:38;94105.00;;;30.81;45.78
82388;BME280;72027;47.420;9.310;2023-08-21T09:03:06;94114.63;;;30.93;43.92
82388;BME280;72027;47.420;9.310;2023-08-21T09:05:35;94107.63;;;30.87;43.64
82388;BME280;72027;47.420;9.310;2023-08-21T09:08:09;94098.31;;;30.79;43.52
82388;BME280;72027;47.420;9.310;2023-08-21T09:10:38;94112.44;;;30.77;42.30
82388;BME280;72027;47.420;9.310;2023-08-21T09:13:12;94106.84;;;30.61;44.32
82388;BME280;72027;47.420;9.310;2023-08-21T09:15:41;94100.44;;;30.78;45.00
82388;BME280;72027;47.420;9.310;2023-08-21T09:18:11;94100.78;;;31.07;45.67
82388;BME280;72027;47.420;9.310;2023-08-21T09:21:42;94101.34;;;31.48;44.20
82388;BME280;72027;47.420;9.310;2023-08-21T09:24:10;94104.78;;;31.81;45.00
82388;BME280;72027;47.420;9.310;2023-08-21T09:26:38;94104.41;;;32.12;44.48
82388;BME280;72027;47.420;9.310;2023-08-21T09:29:06;94096.31;;;32.45;43.35
82388;BME280;72027;47.420;9.310;2023-08-21T09:31:36;94105.66;;;32.73;42.60
82388;BME280;72027;47.420;9.310;2023-08-21T09:34:06;94101.97;;;33.00;43.07
82388;BME280;72027;47.420;9.310;2023-08-21T09:36:34;94100.53;;;33.18;41.41
82388;BME280;72027;47.420;9.310;2023-08-21T09:39:04;94093.63;;;33.31;41.15
82388;BME280;72027;47.420;9.310;2023-08-21T09:41:33;94095.13;;;33.32;39.90
82388;BME280;72027;47.420;9.310;2023-08-21T09:44:01;94093.44;;;33.29;40.37
82388;BME280;72027;47.420;9.310;2023-08-21T09:46:30;94103.13;;;33.33;40.42
82388;BME280;72027;47.420;9.310;2023-08-21T09:48:58;94097.41;;;33.33;41.41
82388;BME280;72027;47.420;9.310;2023-08-21T09:51:26;94093.03;;;33.42;42.46
82388;BME280;72027;47.420;9.310;2023-08-21T09:53:55;94086.69;;;33.53;41.76
82388;BME280;72027;47.420;9.310;2023-08-21T09:56:26;94089.41;;;33.51;41.01
82388;BME280;72027;47.420;9.310;2023-08-21T09:58:54;94083.66;;;33.51;41.60
82388;BME280;72027;47.420;9.310;2023-08-21T10:01:23;94074.63;;;33.55;42.46
82388;BME280;72027;47.420;9.310;2023-08-21T10:03:54;94077.34;;;33.63;42.74
82388;BME280;72027;47.420;9.310;2023-08-21T10:06:22;94079.13;;;33.77;42.48
82388;BME280;72027;47.420;9.310;2023-08-21T10:08:53;94078.09;;;33.92;41.61
82388;BME280;72027;47.420;9.310;2023-08-21T10:11:22;94070.06;;;34.01;42.25
82388;BME280;72027;47.420;9.310;2023-08-21T10:13:52;94082.91;;;34.09;41.73
82388;BME280;72027;47.420;9.310;2023-08-21T10:16:20;94073.22;;;34.05;39.30
82388;BME280;72027;47.420;9.310;2023-08-21T10:18:49;94079.00;;;33.95;41.22
82388;BME280;72027;47.420;9.310;2023-08-21T10:21:18;94068.09;;;33.93;41.47
82388;BME280;72027;47.420;9.310;2023-08-21T10:23:46;94073.22;;;34.05;41.74
82388;BME280;72027;47.420;9.310;2023-08-21T10:26:15;94069.91;;;34.18;41.11
82388;BME280;72027;47.420;9.310;2023-08-21T10:28:48;94080.66;;;34.08;41.76
82388;BME280;72027;47.420;9.310;2023-08-21T10:31:28;94072.19;;;34.10;41.21
82388;BME280;72027;47.420;9.310;2023-08-21T10:33:57;94073.06;;;34.22;42.10
82388;BME280;72027;47.420;9.310;2023-08-21T10:36:38;94069.84;;;34.37;41.76
82388;BME280;72027;47.420;9.310;2023-08-21T10:39:13;94076.16;;;34.55;41.34
82388;BME280;72027;47.420;9.310;2023-08-21T10:41:41;94075.09;;;34.60;39.71
82388;BME280;72027;47.420;9.310;2023-08-21T10:44:09;94068.88;;;34.64;38.33
82388;BME280;72027;47.420;9.310;2023-08-21T10:46:53;94067.78;;;34.69;37.59
82388;BME280;72027;47.420;9.310;2023-08-21T10:49:21;94075.06;;;34.70;35.76
82388;BME280;72027;47.420;9.310;2023-08-21T10:51:50;94068.41;;;34.68;35.62
82388;BME280;72027;47.420;9.310;2023-08-21T10:54:18;94071.34;;;34.58;34.29
82388;BME280;72027;47.420;9.310;2023-08-21T10:56:46;94069.94;;;34.49;34.25
82388;BME280;72027;47.420;9.310;2023-08-21T10:59:14;94063.19;;;34.35;33.71
82388;BME280;72027;47.420;9.310;2023-08-21T11:01:43;94066.22;;;34.37;33.39
82388;BME280;72027;47.420;9.310;2023-08-21T11:04:13;94067.91;;;34.30;36.18
82388;BME280;72027;47.420;9.310;2023-08-21T11:06:41;94071.84;;;34.25;36.69
82388;BME280;72027;47.420;9.310;2023-08-21T11:09:13;94069.84;;;34.37;34.74
82388;BME280;72027;47.420;9.310;2023-08-21T11:11:43;94069.50;;;34.53;35.46
82388;BME280;72027;47.420;9.310;2023-08-21T11:14:11;94065.41;;;34.56;34.86
82388;BME280;72027;47.420;9.310;2023-08-21T11:16:39;94065.25;;;34.54;34.68
82388;BME280;72027;47.420;9.310;2023-08-21T11:19:07;94065.41;;;34.56;34.43
82388;BME280;72027;47.420;9.310;2023-08-21T11:21:36;94067.69;;;34.57;34.33
82388;BME280;72027;47.420;9.310;2023-08-21T11:24:04;94058.53;;;34.71;34.85
82388;BME280;72027;47.420;9.310;2023-08-21T11:26:32;94066.53;;;34.82;34.24
82388;BME280;72027;47.420;9.310;2023-08-21T11:29:00;94067.44;;;34.84;35.58
82388;BME280;72027;47.420;9.310;2023-08-21T11:31:29;94063.91;;;34.86;35.89
82388;BME280;72027;47.420;9.310;2023-08-21T11:33:57;94058.66;;;34.82;36.09
82388;BME280;72027;47.420;9.310;2023-08-21T11:36:31;94060.25;;;34.95;36.08
82388;BME280;72027;47.420;9.310;2023-08-21T11:39:00;94060.81;;;35.03;34.79
82388;BME280;72027;47.420;9.310;2023-08-21T11:41:29;94050.03;;;35.04;34.44
82388;BME280;72027;47.420;9.310;2023-08-21T11:44:02;94053.66;;;35.04;35.62
82388;BME280;72027;47.420;9.310;2023-08-21T11:46:30;94051.53;;;35.05;35.12
82388;BME280;72027;47.420;9.310;2023-08-21T11:49:00;94050.47;;;35.10;35.63
82388;BME280;72027;47.420;9.310;2023-08-21T11:51:28;94050.34;;;35.08;36.07
82388;BME280;72027;47.420;9.310;2023-08-21T11:53:56;94046.84;;;35.10;35.04
82388;BME280;72027;47.420;9.310;2023-08-21T11:56:27;94044.56;;;35.08;33.94
82388;BME280;72027;47.420;9.310;2023-08-21T11:58:56;94046.09;;;35.09;34.28
82388;BME280;72027;47.420;9.310;2023-08-21T12:01:25;94041.25;;;35.12;34.61
82388;BME280;72027;47.420;9.310;2023-08-21T12:03:53;94033.88;;;34.99;34.83
82388;BME280;72027;47.420;9.310;2023-08-21T12:06:23;94038.50;;;35.14;34.52
82388;BME280;72027;47.420;9.310;2023-08-21T12:08:52;94039.63;;;34.99;34.24
82388;BME280;72027;47.420;9.310;2023-08-21T12:11:20;94026.25;;;35.03;34.61
82388;BME280;72027;47.420;9.310;2023-08-21T12:13:49;94037.50;;;34.99;33.64
82388;BME280;72027;47.420;9.310;2023-08-21T12:16:18;94031.66;;;34.88;33.83
82388;BME280;72027;47.420;9.310;2023-08-21T12:18:46;94021.78;;;34.91;33.22
82388;BME280;72027;47.420;9.310;2023-08-21T12:21:14;94029.94;;;34.94;32.51
82388;BME280;72027;47.420;9.310;2023-08-21T12:23:42;94022.50;;;35.01;33.89
82388;BME280;72027;47.420;9.310;2023-08-21T12:26:10;94031.06;;;35.11;36.67
82388;BME280;72027;47.420;9.310;2023-08-21T12:28:37;94026.91;;;35.23;36.39
82388;BME280;72027;47.420;9.310;2023-08-21T12:31:07;94025.47;;;35.34;34.73
82388;BME280;72027;47.420;9.310;2023-08-21T12:33:34;94017.78;;;35.48;34.43
82388;BME280;72027;47.420;9.310;2023-08-21T12:36:03;94026.00;;;35.64;37.59
82388;BME280;72027;47.420;9.310;2023-08-21T12:38:31;94020.91;;;35.74;37.72
82388;BME280;72027;47.420;9.310;2023-08-21T12:40:59;94013.16;;;35.77;37.67
82388;BME280;72027;47.420;9.310;2023-08-21T12:43:27;94009.16;;;35.82;37.33
82388;BME280;72027;47.420;9.310;2023-08-21T12:45:55;94013.56;;;35.83;37.85
82388;BME280;72027;47.420;9.310;2023-08-21T12:48:24;94006.28;;;35.82;37.68
82388;BME280;72027;47.420;9.310;2023-08-21T12:50:52;93997.03;;;35.95;37.30
82388;BME280;72027;47.420;9.310;2023-08-21T12:53:20;94007.88;;;36.06;37.32
82388;BME280;72027;47.420;9.310;2023-08-21T12:55:48;94001.97;;;36.04;37.32
82388;BME280;72027;47.420;9.310;2023-08-21T12:58:16;93993.94;;;36.03;37.03
82388;BME280;72027;47.420;9.310;2023-08-21T13:00:44;94000.94;;;36.00;37.21
82388;BME280;72027;47.420;9.310;2023-08-21T13:03:12;93993.69;;;35.99;36.02
82388;BME280;72027;47.420;9.310;2023-08-21T13:05:41;93985.03;;;35.99;37.09
82388;BME280;72027;47.420;9.310;2023-08-21T13:08:09;93990.16;;;36.00;36.56
82388;BME280;72027;47.420;9.310;2023-08-21T13:10:37;93989.38;;;35.88;36.57